Time;durP1;ratioP1;P1;durP2;ratioP2;P2;SDS_P1;SDS_P2;PMS_P1;PMS_P2;Temp;Humidity;BMP_temperature;BMP_pressure;BME280_temperature;BME280_humidity;BME280_pressure;Samples;Min_cycle;Max_cycle;Signal;HPM_P1;HPM_P2
2023/05/29 00:01:08;;;;;;;;;;;22.60;39.70;;;;;;5054143;28;19939;-52
2023/05/29 00:03:33;;;;;;;;;;;22.60;40.00;;;;;;5061660;28;19970;-51
2023/05/29 00:06:00;;;;;;;;;;;22.60;40.30;;;;;;5059887;28;19947;-52
2023/05/29 00:08:26;;;;;;;;;;;22.60;39.80;;;;;;5062493;28;19943;-51
2023/05/29 00:10:51;;;;;;;;;;;22.60;40.30;;;;;;5064802;28;19925;-51
2023/05/29 00:13:17;;;;;;;;;;;22.60;40.20;;;;;;5063345;28;19931;-52
2023/05/29 00:15:42;;;;;;;;;;;22.60;40.90;;;;;;5066835;28;19983;-52
2023/05/29 00:18:08;;;;;;;;;;;22.50;40.00;;;;;;5061924;28;20380;-51
2023/05/29 00:20:34;;;;;;;;;;;22.50;40.60;;;;;;5061812;28;20383;-51
2023/05/29 00:23:01;;;;;;;;;;;22.40;40.10;;;;;;5054682;28;20349;-52
2023/05/29 00:25:27;;;;;;;;;;;22.40;40.30;;;;;;5060632;28;19927;-53
2023/05/29 00:27:52;;;;;;;;;;;22.40;40.10;;;;;;5059700;28;19912;-52
2023/05/29 00:30:18;;;;;;;;;;;22.50;40.50;;;;;;5064079;28;19966;-52
2023/05/29 00:32:43;;;;;;;;;;;22.30;40.10;;;;;;5052882;28;19924;-52
2023/05/29 00:35:09;;;;;;;;;;;22.40;41.00;;;;;;5062985;28;19913;-53
2023/05/29 00:37:35;;;;;;;;;;;22.40;40.20;;;;;;5063470;28;19916;-52
2023/05/29 00:40:00;;;;;;;;;;;22.50;40.50;;;;;;5060722;28;19916;-52
2023/05/29 00:42:26;;;;;;;;;;;22.50;40.50;;;;;;5059051;28;19916;-51
2023/05/29 00:44:51;;;;;;;;;;;22.50;40.60;;;;;;5063512;28;20003;-52
2023/05/29 00:47:17;;;;;;;;;;;22.40;40.90;;;;;;5068014;28;20311;-52
2023/05/29 00:49:42;;;;;;;;;;;22.40;40.20;;;;;;5056610;28;21670;-52
2023/05/29 00:52:07;;;;;;;;;;;22.40;40.40;;;;;;5074490;28;19927;-52
2023/05/29 00:54:33;;;;;;;;;;;22.30;40.10;;;;;;5073931;28;19916;-51
2023/05/29 00:56:58;;;;;;;;;;;22.30;40.60;;;;;;5076214;28;19922;-52
2023/05/29 00:59:26;;;;;;;;;;;22.30;40.30;;;;;;5079649;28;19920;-52
2023/05/29 01:01:51;;;;;;;;;;;22.20;40.30;;;;;;5073347;28;19965;-51
2023/05/29 01:04:17;;;;;;;;;;;22.30;40.20;;;;;;5052795;28;20376;-52
2023/05/29 01:06:43;;;;;;;;;;;22.30;40.60;;;;;;5083250;28;19935;-52
2023/05/29 01:09:09;;;;;;;;;;;22.30;40.30;;;;;;5080332;28;21070;-51
2023/05/29 01:11:43;;;;;;;;;;;22.20;40.20;;;;;;5081838;28;19927;-53
2023/05/29 01:14:10;;;;;;;;;;;22.20;40.40;;;;;;5076488;28;19917;-52
2023/05/29 01:16:38;;;;;;;;;;;22.10;40.40;;;;;;5051521;28;20045;-52
2023/05/29 01:19:22;;;;;;;;;;;22.10;39.90;;;;;;5059902;28;19927;-52
2023/05/29 01:22:08;;;;;;;;;;;22.20;40.40;;;;;;5065316;28;19916;-52
2023/05/29 01:24:50;;;;;;;;;;;22.10;39.70;;;;;;5058213;28;19985;-52
2023/05/29 01:27:17;;;;;;;;;;;22.10;39.70;;;;;;5079136;28;20314;-51
2023/05/29 01:29:43;;;;;;;;;;;22.10;39.80;;;;;;5081255;28;19923;-52
2023/05/29 01:32:08;;;;;;;;;;;22.20;40.00;;;;;;5054806;28;19920;-52
2023/05/29 01:34:34;;;;;;;;;;;22.20;39.40;;;;;;5060923;28;19922;-51
2023/05/29 01:36:59;;;;;;;;;;;22.20;39.60;;;;;;5080709;28;19966;-52
2023/05/29 01:39:25;;;;;;;;;;;22.20;39.20;;;;;;5077061;28;19920;-52
2023/05/29 01:41:50;;;;;;;;;;;22.20;39.40;;;;;;5051389;28;19999;-52
2023/05/29 01:44:16;;;;;;;;;;;22.20;39.10;;;;;;5060415;28;20008;-52
2023/05/29 01:46:41;;;;;;;;;;;22.20;39.00;;;;;;5078741;28;19913;-52
2023/05/29 01:49:07;;;;;;;;;;;22.30;38.70;;;;;;5078390;28;19931;-52
2023/05/29 01:51:32;;;;;;;;;;;22.20;39.10;;;;;;5078898;28;20096;-52
2023/05/29 01:53:59;;;;;;;;;;;22.20;38.70;;;;;;5075153;28;20133;-53
2023/05/29 01:56:26;;;;;;;;;;;22.20;38.60;;;;;;5075784;28;19920;-53
2023/05/29 01:58:52;;;;;;;;;;;22.20;38.80;;;;;;5058002;28;19919;-52
2023/05/29 02:01:19;;;;;;;;;;;22.20;39.00;;;;;;5079075;28;19912;-52
2023/05/29 02:03:44;;;;;;;;;;;22.20;39.00;;;;;;5076962;28;19946;-53
2023/05/29 02:06:11;;;;;;;;;;;22.20;38.50;;;;;;5086874;28;20376;-52
2023/05/29 02:08:36;;;;;;;;;;;22.20;38.60;;;;;;5085948;28;19938;-52
2023/05/29 02:11:02;;;;;;;;;;;22.30;38.80;;;;;;5051231;28;19920;-53
2023/05/29 02:13:27;;;;;;;;;;;22.20;38.70;;;;;;5082126;28;19915;-52
2023/05/29 02:15:52;;;;;;;;;;;22.10;38.80;;;;;;5079958;28;19999;-52
2023/05/29 02:18:18;;;;;;;;;;;22.10;38.70;;;;;;5080611;28;19955;-52
2023/05/29 02:20:44;;;;;;;;;;;22.10;38.80;;;;;;5079102;28;19919;-52
2023/05/29 02:23:09;;;;;;;;;;;22.10;38.80;;;;;;5060237;28;19926;-52
2023/05/29 02:25:35;;;;;;;;;;;22.10;38.70;;;;;;5080207;28;20006;-52
2023/05/29 02:28:01;;;;;;;;;;;22.10;38.50;;;;;;5078025;28;19920;-52
2023/05/29 02:30:27;;;;;;;;;;;22.00;39.00;;;;;;5054806;28;19912;-53
2023/05/29 02:32:52;;;;;;;;;;;22.10;38.70;;;;;;5079510;28;20745;-52
2023/05/29 02:35:20;;;;;;;;;;;22.00;38.90;;;;;;5086370;28;19912;-53
2023/05/29 02:37:46;;;;;;;;;;;22.00;39.00;;;;;;5089455;28;20342;-53
2023/05/29 02:40:11;;;;;;;;;;;22.00;39.40;;;;;;5048136;28;20009;-52
2023/05/29 02:42:37;;;;;;;;;;;21.90;38.90;;;;;;5078126;28;19946;-53
2023/05/29 02:45:02;;;;;;;;;;;22.00;38.90;;;;;;5079819;28;19912;-52
2023/05/29 02:47:28;;;;;;;;;;;21.90;38.70;;;;;;5078013;28;19920;-52
2023/05/29 02:49:53;;;;;;;;;;;22.00;38.60;;;;;;5071159;28;19916;-52
2023/05/29 02:52:19;;;;;;;;;;;22.00;38.50;;;;;;5061647;28;19919;-52
2023/05/29 02:54:44;;;;;;;;;;;22.00;38.40;;;;;;5078857;28;20015;-52
2023/05/29 02:57:10;;;;;;;;;;;22.00;38.70;;;;;;5081321;28;19970;-52
2023/05/29 02:59:36;;;;;;;;;;;22.00;38.50;;;;;;5075574;28;19916;-52
2023/05/29 03:02:01;;;;;;;;;;;22.00;38.80;;;;;;5080420;28;19918;-52
2023/05/29 03:04:27;;;;;;;;;;;21.90;38.60;;;;;;5078035;28;20303;-53
2023/05/29 03:06:52;;;;;;;;;;;22.00;38.60;;;;;;5077488;28;19916;-52
2023/05/29 03:09:18;;;;;;;;;;;21.90;38.40;;;;;;5077732;28;19918;-52
2023/05/29 03:11:44;;;;;;;;;;;22.00;39.00;;;;;;5086468;28;20292;-53
2023/05/29 03:14:10;;;;;;;;;;;21.90;38.70;;;;;;5080417;28;19912;-52
2023/05/29 03:16:35;;;;;;;;;;;21.90;38.70;;;;;;5077224;28;19935;-53
2023/05/29 03:19:01;;;;;;;;;;;21.90;38.80;;;;;;5077413;28;19926;-52
2023/05/29 03:21:26;;;;;;;;;;;21.80;38.40;;;;;;5072933;28;19923;-52
2023/05/29 03:23:52;;;;;;;;;;;21.80;38.50;;;;;;5074738;28;20002;-53
2023/05/29 03:26:17;;;;;;;;;;;21.80;38.60;;;;;;5079077;28;19952;-53
2023/05/29 03:28:43;;;;;;;;;;;21.80;38.40;;;;;;5060680;28;19920;-52
2023/05/29 03:31:08;;;;;;;;;;;21.80;38.60;;;;;;5061393;28;20364;-52
2023/05/29 03:33:35;;;;;;;;;;;21.80;38.40;;;;;;5078467;28;19916;-52
2023/05/29 03:36:00;;;;;;;;;;;21.80;38.60;;;;;;5054436;28;20023;-52
2023/05/29 03:38:26;;;;;;;;;;;21.80;38.50;;;;;;5078143;28;20003;-53
2023/05/29 03:40:51;;;;;;;;;;;21.70;38.40;;;;;;5077096;28;19959;-52
2023/05/29 03:43:17;;;;;;;;;;;21.80;38.60;;;;;;5079415;28;19916;-52
2023/05/29 03:45:42;;;;;;;;;;;21.80;38.70;;;;;;5076660;28;19920;-53
2023/05/29 03:48:08;;;;;;;;;;;21.80;38.70;;;;;;5080092;28;20339;-52
2023/05/29 03:50:33;;;;;;;;;;;21.80;38.60;;;;;;5076510;28;20011;-52
2023/05/29 03:52:58;;;;;;;;;;;21.80;38.50;;;;;;5079841;28;20372;-52
2023/05/29 03:55:25;;;;;;;;;;;21.80;38.60;;;;;;5070546;28;20310;-52
2023/05/29 03:57:51;;;;;;;;;;;21.80;38.60;;;;;;5072033;28;20395;-53
2023/05/29 04:00:16;;;;;;;;;;;21.70;38.50;;;;;;5071634;28;20469;-53
2023/05/29 04:02:41;;;;;;;;;;;21.70;38.50;;;;;;5069204;28;19932;-52
2023/05/29 04:05:08;;;;;;;;;;;21.70;38.50;;;;;;5075894;28;20386;-52
2023/05/29 04:07:36;;;;;;;;;;;21.80;38.50;;;;;;5065133;28;19912;-53
2023/05/29 04:10:01;;;;;;;;;;;21.80;38.40;;;;;;5077976;28;19951;-53
2023/05/29 04:12:27;;;;;;;;;;;21.70;38.30;;;;;;5071248;28;21524;-52
2023/05/29 04:14:52;;;;;;;;;;;21.80;38.60;;;;;;5058206;28;19973;-53
2023/05/29 04:17:18;;;;;;;;;;;21.70;38.40;;;;;;5077712;28;19912;-52
2023/05/29 04:19:43;;;;;;;;;;;21.70;38.30;;;;;;5075848;28;19920;-52
2023/05/29 04:22:09;;;;;;;;;;;21.70;38.40;;;;;;5060045;28;19916;-52
2023/05/29 04:24:35;;;;;;;;;;;21.70;38.40;;;;;;5074940;28;19924;-53
2023/05/29 04:27:01;;;;;;;;;;;21.70;38.40;;;;;;5059296;28;19963;-53
2023/05/29 04:29:28;;;;;;;;;;;21.70;38.40;;;;;;5078983;28;19969;-52
2023/05/29 04:31:55;;;;;;;;;;;21.70;39.10;;;;;;5078472;28;20399;-53
2023/05/29 04:34:21;;;;;;;;;;;21.70;38.50;;;;;;5079600;28;19942;-53
2023/05/29 04:36:47;;;;;;;;;;;21.70;38.50;;;;;;5076172;28;19919;-52
2023/05/29 04:39:12;;;;;;;;;;;21.70;38.70;;;;;;5081875;28;19927;-52
2023/05/29 04:41:40;;;;;;;;;;;21.60;38.30;;;;;;5062192;28;20057;-52
2023/05/29 04:44:06;;;;;;;;;;;21.60;38.60;;;;;;5078183;28;19924;-52
2023/05/29 04:46:31;;;;;;;;;;;21.60;38.40;;;;;;5077350;28;19916;-53
2023/05/29 04:48:57;;;;;;;;;;;21.60;38.30;;;;;;5075628;28;19935;-52
2023/05/29 04:51:22;;;;;;;;;;;21.70;38.40;;;;;;5075056;28;20288;-53
2023/05/29 04:53:48;;;;;;;;;;;21.70;38.60;;;;;;5053421;28;20816;-52
2023/05/29 04:56:14;;;;;;;;;;;21.60;38.60;;;;;;5087779;28;19912;-53
2023/05/29 04:58:40;;;;;;;;;;;21.70;38.40;;;;;;5086767;28;19912;-52
2023/05/29 05:01:07;;;;;;;;;;;21.60;38.40;;;;;;5081723;28;19920;-52
2023/05/29 05:03:33;;;;;;;;;;;21.60;38.50;;;;;;5091727;28;20358;-52
2023/05/29 05:05:59;;;;;;;;;;;21.60;38.50;;;;;;5085023;28;19913;-52
2023/05/29 05:08:25;;;;;;;;;;;21.60;38.40;;;;;;5087582;28;19923;-53
2023/05/29 05:10:50;;;;;;;;;;;21.60;38.70;;;;;;5081383;28;20575;-52
2023/05/29 05:13:15;;;;;;;;;;;21.60;38.50;;;;;;5081366;28;19924;-52
2023/05/29 05:15:41;;;;;;;;;;;21.60;38.30;;;;;;5079856;28;19920;-52
2023/05/29 05:18:06;;;;;;;;;;;21.50;38.60;;;;;;5064752;28;20003;-51
2023/05/29 05:20:32;;;;;;;;;;;21.50;38.70;;;;;;5076872;28;19966;-52
2023/05/29 05:22:59;;;;;;;;;;;21.40;38.70;;;;;;5078947;28;19923;-52
2023/05/29 05:25:25;;;;;;;;;;;21.40;38.80;;;;;;5076870;28;19916;-52
2023/05/29 05:27:50;;;;;;;;;;;21.40;38.70;;;;;;5070438;28;19923;-52
2023/05/29 05:30:16;;;;;;;;;;;21.40;38.70;;;;;;5074699;28;19938;-52
2023/05/29 05:32:41;;;;;;;;;;;21.50;38.80;;;;;;5081615;28;20284;-51
2023/05/29 05:35:08;;;;;;;;;;;21.50;38.60;;;;;;5054053;28;19963;-52
2023/05/29 05:37:34;;;;;;;;;;;21.40;38.60;;;;;;5082043;28;19942;-52
2023/05/29 05:40:00;;;;;;;;;;;21.40;38.90;;;;;;5079068;28;20353;-52
2023/05/29 05:42:25;;;;;;;;;;;21.40;38.80;;;;;;5086469;28;19920;-52
2023/05/29 05:44:51;;;;;;;;;;;21.40;38.70;;;;;;5078040;28;19984;-52
2023/05/29 05:47:16;;;;;;;;;;;21.40;38.60;;;;;;5079563;28;20112;-52
2023/05/29 05:49:43;;;;;;;;;;;21.40;38.70;;;;;;5060258;28;19920;-52
2023/05/29 05:52:08;;;;;;;;;;;21.50;38.70;;;;;;5077275;28;20061;-52
2023/05/29 05:54:34;;;;;;;;;;;21.40;38.60;;;;;;5079708;28;20015;-52
2023/05/29 05:57:00;;;;;;;;;;;21.40;38.70;;;;;;5073580;28;19919;-51
2023/05/29 05:59:25;;;;;;;;;;;21.50;38.80;;;;;;5073907;28;20497;-52
2023/05/29 06:01:51;;;;;;;;;;;21.40;38.60;;;;;;5079696;28;20352;-52
2023/05/29 06:04:17;;;;;;;;;;;21.40;38.60;;;;;;5087580;28;19927;-55
2023/05/29 06:06:42;;;;;;;;;;;21.30;38.90;;;;;;5076668;28;19912;-52
2023/05/29 06:09:09;;;;;;;;;;;21.30;38.70;;;;;;5088505;28;19938;-51
2023/05/29 06:11:34;;;;;;;;;;;21.40;38.70;;;;;;5052292;28;19956;-52
2023/05/29 06:14:00;;;;;;;;;;;21.40;39.00;;;;;;5080460;28;19966;-52
2023/05/29 06:16:25;;;;;;;;;;;21.50;38.90;;;;;;5083329;28;19920;-52
2023/05/29 06:18:50;;;;;;;;;;;21.50;38.90;;;;;;5081041;28;19930;-53
2023/05/29 06:21:16;;;;;;;;;;;21.40;38.70;;;;;;5058283;28;19955;-52
2023/05/29 06:23:41;;;;;;;;;;;21.40;38.60;;;;;;5081390;28;19916;-52
2023/05/29 06:26:07;;;;;;;;;;;21.40;38.70;;;;;;5079164;28;19951;-52
2023/05/29 06:28:32;;;;;;;;;;;21.20;38.50;;;;;;5061241;28;19912;-52
2023/05/29 06:30:58;;;;;;;;;;;21.10;38.70;;;;;;5078349;28;19912;-52
2023/05/29 06:33:24;;;;;;;;;;;21.20;38.50;;;;;;5079543;28;20352;-52
2023/05/29 06:35:49;;;;;;;;;;;21.10;38.80;;;;;;5086090;28;19916;-52
2023/05/29 06:38:15;;;;;;;;;;;21.20;38.70;;;;;;5090380;28;19969;-52
2023/05/29 06:40:40;;;;;;;;;;;21.20;38.60;;;;;;5080115;28;20329;-53
2023/05/29 06:43:06;;;;;;;;;;;21.20;38.20;;;;;;5079125;28;20303;-53
2023/05/29 06:45:31;;;;;;;;;;;21.30;38.60;;;;;;5061733;28;19912;-53
2023/05/29 06:47:56;;;;;;;;;;;21.30;38.30;;;;;;5081883;28;19923;-52
2023/05/29 06:50:22;;;;;;;;;;;21.30;38.20;;;;;;5075706;28;20009;-52
2023/05/29 06:52:47;;;;;;;;;;;21.30;38.20;;;;;;5083422;28;19965;-53
2023/05/29 06:55:13;;;;;;;;;;;21.40;38.30;;;;;;5063331;28;20372;-53
2023/05/29 06:57:38;;;;;;;;;;;21.30;38.10;;;;;;5079449;28;19916;-52
2023/05/29 07:00:05;;;;;;;;;;;21.30;38.20;;;;;;5075847;28;19952;-52
2023/05/29 07:02:31;;;;;;;;;;;21.40;38.10;;;;;;5075073;28;19927;-52
2023/05/29 07:04:57;;;;;;;;;;;21.40;38.20;;;;;;5086016;28;19912;-52
2023/05/29 07:07:22;;;;;;;;;;;21.40;38.10;;;;;;5059529;28;19916;-51
2023/05/29 07:09:48;;;;;;;;;;;21.40;38.40;;;;;;5079533;28;19916;-52
2023/05/29 07:12:13;;;;;;;;;;;21.20;38.40;;;;;;5079463;28;20004;-52
2023/05/29 07:14:39;;;;;;;;;;;21.20;38.20;;;;;;5076233;28;20019;-51
2023/05/29 07:17:05;;;;;;;;;;;21.20;38.30;;;;;;5077127;28;19920;-52
2023/05/29 07:19:32;;;;;;;;;;;21.30;38.10;;;;;;5080435;28;19916;-52
2023/05/29 07:21:57;;;;;;;;;;;21.20;38.40;;;;;;5077147;28;19935;-52
2023/05/29 07:24:23;;;;;;;;;;;21.20;38.10;;;;;;5075681;28;20373;-52
2023/05/29 07:26:48;;;;;;;;;;;21.10;38.10;;;;;;5077843;28;19923;-52
2023/05/29 07:29:16;;;;;;;;;;;21.10;37.90;;;;;;5081582;28;19912;-51
2023/05/29 07:31:42;;;;;;;;;;;21.00;38.50;;;;;;5074211;28;19968;-52
2023/05/29 07:34:07;;;;;;;;;;;21.10;38.10;;;;;;5077587;28;19912;-52
2023/05/29 07:36:33;;;;;;;;;;;21.10;38.20;;;;;;5081525;28;19919;-52
2023/05/29 07:38:58;;;;;;;;;;;21.10;37.70;;;;;;5075802;28;19916;-52
2023/05/29 07:41:23;;;;;;;;;;;21.00;37.80;;;;;;5075022;28;19920;-53
2023/05/29 07:43:51;;;;;;;;;;;21.00;38.70;;;;;;5077033;28;20003;-53
2023/05/29 07:46:17;;;;;;;;;;;20.90;38.00;;;;;;5076839;28;20007;-52
2023/05/29 07:48:43;;;;;;;;;;;20.80;38.10;;;;;;5076127;28;19951;-52
2023/05/29 07:51:10;;;;;;;;;;;20.90;38.00;;;;;;5075106;28;21845;-52
2023/05/29 07:53:36;;;;;;;;;;;20.90;37.90;;;;;;5082272;28;20265;-52
2023/05/29 07:56:01;;;;;;;;;;;20.90;37.80;;;;;;5083784;28;19924;-52
2023/05/29 07:58:27;;;;;;;;;;;21.00;37.70;;;;;;5080703;28;19915;-52
2023/05/29 08:00:52;;;;;;;;;;;21.10;38.10;;;;;;5079357;28;19919;-52
2023/05/29 08:03:18;;;;;;;;;;;21.20;38.00;;;;;;5080564;28;19916;-53
2023/05/29 08:05:44;;;;;;;;;;;21.10;37.60;;;;;;5077133;28;19912;-52
2023/05/29 08:08:12;;;;;;;;;;;21.10;37.60;;;;;;5057343;28;19952;-52
2023/05/29 08:10:37;;;;;;;;;;;21.10;37.60;;;;;;5077726;28;19912;-52
2023/05/29 08:13:03;;;;;;;;;;;21.20;37.90;;;;;;5083272;28;20065;-52
2023/05/29 08:15:28;;;;;;;;;;;21.10;37.60;;;;;;5082979;28;20002;-52
2023/05/29 08:17:53;;;;;;;;;;;21.20;37.90;;;;;;5083226;28;19913;-52
2023/05/29 08:20:20;;;;;;;;;;;21.10;37.70;;;;;;5083553;28;19912;-53
2023/05/29 08:22:46;;;;;;;;;;;21.10;37.90;;;;;;5087621;28;19926;-53
2023/05/29 08:25:11;;;;;;;;;;;21.00;38.00;;;;;;5062718;28;20040;-53
2023/05/29 08:27:36;;;;;;;;;;;21.00;38.00;;;;;;5092134;28;19919;-53
2023/05/29 08:30:03;;;;;;;;;;;21.00;37.90;;;;;;5094342;28;19908;-53
2023/05/29 08:32:28;;;;;;;;;;;21.00;37.80;;;;;;5087476;28;19970;-53
2023/05/29 08:34:53;;;;;;;;;;;21.00;37.60;;;;;;5064543;28;19924;-52
2023/05/29 08:37:19;;;;;;;;;;;21.00;38.10;;;;;;5094973;28;19999;-53
2023/05/29 08:39:45;;;;;;;;;;;21.00;37.80;;;;;;5070126;28;19951;-53
2023/05/29 08:42:16;;;;;;;;;;;21.00;37.80;;;;;;5090683;28;19916;-52
2023/05/29 08:44:42;;;;;;;;;;;21.00;37.60;;;;;;5075270;28;19916;-52
2023/05/29 08:47:07;;;;;;;;;;;20.90;37.40;;;;;;5083154;28;20007;-53
2023/05/29 08:49:35;;;;;;;;;;;21.00;37.30;;;;;;5082649;28;19959;-53
2023/05/29 08:52:06;;;;;;;;;;;21.00;37.40;;;;;;5085135;28;19912;-53
2023/05/29 08:54:32;;;;;;;;;;;20.90;37.30;;;;;;5084673;28;20382;-52
2023/05/29 08:56:58;;;;;;;;;;;20.90;36.90;;;;;;5065178;28;19916;-53
2023/05/29 08:59:23;;;;;;;;;;;20.80;37.50;;;;;;5083591;28;20304;-53
2023/05/29 09:01:49;;;;;;;;;;;20.80;37.20;;;;;;5065916;28;19918;-52
2023/05/29 09:04:15;;;;;;;;;;;20.90;37.20;;;;;;5089260;28;20334;-52
2023/05/29 09:06:41;;;;;;;;;;;20.90;37.00;;;;;;5083838;28;19916;-54
2023/05/29 09:09:06;;;;;;;;;;;20.80;36.90;;;;;;5064768;28;20443;-52
2023/05/29 09:11:32;;;;;;;;;;;20.90;37.30;;;;;;5089683;28;19984;-53
2023/05/29 09:13:59;;;;;;;;;;;21.00;37.30;;;;;;5083335;28;19918;-53
2023/05/29 09:16:25;;;;;;;;;;;21.10;37.30;;;;;;5088194;28;19974;-52
2023/05/29 09:18:50;;;;;;;;;;;21.20;37.10;;;;;;5086477;28;20392;-53
2023/05/29 09:21:24;;;;;;;;;;;21.30;37.00;;;;;;5064236;28;19921;-53
2023/05/29 09:23:51;;;;;;;;;;;21.40;36.90;;;;;;5085911;28;19962;-52
2023/05/29 09:26:17;;;;;;;;;;;21.40;37.00;;;;;;5085694;28;20030;-52
2023/05/29 09:28:43;;;;;;;;;;;21.40;36.90;;;;;;5084185;28;20340;-52
2023/05/29 09:31:13;;;;;;;;;;;21.40;36.80;;;;;;5051197;28;20268;-53
2023/05/29 09:33:46;;;;;;;;;;;21.50;36.80;;;;;;5086497;28;19919;-52
2023/05/29 09:36:19;;;;;;;;;;;21.50;37.10;;;;;;5088386;28;19912;-52
2023/05/29 09:38:45;;;;;;;;;;;21.40;36.60;;;;;;5063024;28;19920;-52
2023/05/29 09:41:11;;;;;;;;;;;21.40;37.00;;;;;;5082581;28;19920;-53
2023/05/29 09:43:36;;;;;;;;;;;21.40;37.10;;;;;;5084149;28;20018;-53
2023/05/29 09:46:02;;;;;;;;;;;21.30;36.90;;;;;;5064977;28;20361;-52
2023/05/29 09:48:27;;;;;;;;;;;21.30;37.30;;;;;;5065915;28;20360;-52
2023/05/29 09:50:55;;;;;;;;;;;21.40;37.20;;;;;;5082526;28;19912;-52
2023/05/29 09:53:24;;;;;;;;;;;21.50;37.20;;;;;;5070937;28;19956;-52
2023/05/29 09:55:50;;;;;;;;;;;21.50;37.00;;;;;;5078886;28;20364;-52
2023/05/29 09:58:18;;;;;;;;;;;21.60;36.90;;;;;;5079253;28;19920;-52
2023/05/29 10:00:44;;;;;;;;;;;21.70;37.00;;;;;;5067788;28;19998;-52
2023/05/29 10:03:11;;;;;;;;;;;21.70;36.80;;;;;;5083643;28;19920;-52
2023/05/29 10:05:37;;;;;;;;;;;21.60;37.10;;;;;;5060404;28;19923;-54
2023/05/29 10:08:03;;;;;;;;;;;21.60;36.90;;;;;;5060760;28;20033;-52
2023/05/29 10:10:28;;;;;;;;;;;21.70;36.70;;;;;;5082138;28;19923;-52
2023/05/29 10:12:54;;;;;;;;;;;21.80;36.80;;;;;;5062806;28;19956;-54
2023/05/29 10:15:19;;;;;;;;;;;21.70;37.00;;;;;;5079202;28;19973;-53
2023/05/29 10:17:51;;;;;;;;;;;21.60;37.00;;;;;;5082194;28;19912;-52
2023/05/29 10:20:17;;;;;;;;;;;21.50;36.90;;;;;;5074714;28;19955;-53
2023/05/29 10:22:45;;;;;;;;;;;21.50;38.00;;;;;;5080879;28;20369;-53
2023/05/29 10:25:11;;;;;;;;;;;21.50;37.10;;;;;;5084940;28;19916;-52
2023/05/29 10:27:36;;;;;;;;;;;21.70;36.90;;;;;;5068791;28;19973;-53
2023/05/29 10:30:05;;;;;;;;;;;21.80;37.00;;;;;;5063303;28;19920;-52
2023/05/29 10:32:36;;;;;;;;;;;21.80;36.80;;;;;;5067908;28;20428;-52
2023/05/29 10:35:11;;;;;;;;;;;21.90;36.70;;;;;;5070411;28;20010;-52
2023/05/29 10:37:40;;;;;;;;;;;21.90;36.50;;;;;;5085038;28;20014;-54
2023/05/29 10:40:07;;;;;;;;;;;22.00;36.70;;;;;;5081265;28;19916;-54
2023/05/29 10:42:38;;;;;;;;;;;22.10;36.50;;;;;;5084171;28;19919;-54
2023/05/29 10:45:03;;;;;;;;;;;22.20;36.50;;;;;;5084611;28;19916;-54
2023/05/29 10:47:29;;;;;;;;;;;22.30;36.70;;;;;;5083052;28;19923;-54
2023/05/29 10:49:59;;;;;;;;;;;22.30;36.60;;;;;;5054547;28;19912;-54
2023/05/29 10:52:24;;;;;;;;;;;22.30;36.50;;;;;;5076693;28;19952;-54
2023/05/29 10:54:50;;;;;;;;;;;22.30;36.30;;;;;;5076570;28;19963;-54
2023/05/29 10:57:16;;;;;;;;;;;22.40;36.20;;;;;;5086297;28;19978;-54
2023/05/29 10:59:41;;;;;;;;;;;22.40;36.20;;;;;;5085103;28;20352;-55
2023/05/29 11:02:07;;;;;;;;;;;22.40;36.20;;;;;;5049051;28;19916;-54
2023/05/29 11:04:33;;;;;;;;;;;22.40;36.40;;;;;;5065008;28;19920;-54
2023/05/29 11:06:59;;;;;;;;;;;22.30;36.50;;;;;;5088630;28;20273;-54
2023/05/29 11:09:34;;;;;;;;;;;22.30;37.20;;;;;;5078750;28;19943;-54
2023/05/29 11:12:12;;;;;;;;;;;22.20;36.30;;;;;;5082796;28;19913;-54
2023/05/29 11:14:45;;;;;;;;;;;22.10;36.10;;;;;;5089068;28;20339;-54
2023/05/29 11:17:27;;;;;;;;;;;22.20;36.20;;;;;;5089125;28;19918;-54
2023/05/29 11:19:53;;;;;;;;;;;22.20;36.20;;;;;;5059529;28;20380;-54
2023/05/29 11:22:19;;;;;;;;;;;22.20;36.00;;;;;;5068771;28;19919;-54
2023/05/29 11:24:44;;;;;;;;;;;22.30;36.00;;;;;;5090096;28;19916;-54
2023/05/29 11:27:10;;;;;;;;;;;22.30;35.90;;;;;;5065061;28;19916;-54
2023/05/29 11:29:35;;;;;;;;;;;22.40;35.60;;;;;;5088648;28;19920;-54
2023/05/29 11:32:02;;;;;;;;;;;22.50;35.60;;;;;;5087595;28;19916;-54
2023/05/29 11:34:27;;;;;;;;;;;22.50;35.50;;;;;;5090131;28;20019;-54
2023/05/29 11:36:53;;;;;;;;;;;22.50;35.50;;;;;;5067711;28;20007;-54
2023/05/29 11:39:18;;;;;;;;;;;22.40;35.90;;;;;;5066618;28;19912;-54
2023/05/29 11:41:44;;;;;;;;;;;22.20;36.00;;;;;;5076890;28;19913;-53
2023/05/29 11:44:13;;;;;;;;;;;21.90;36.20;;;;;;5070470;28;19920;-54
2023/05/29 11:46:38;;;;;;;;;;;21.80;36.40;;;;;;5079000;28;19916;-53
2023/05/29 11:49:03;;;;;;;;;;;21.90;36.10;;;;;;5084677;28;19912;-53
2023/05/29 11:51:29;;;;;;;;;;;22.00;36.10;;;;;;5062520;28;20023;-54
2023/05/29 11:53:58;;;;;;;;;;;22.10;36.00;;;;;;5089503;28;20003;-53
2023/05/29 11:56:26;;;;;;;;;;;22.20;35.80;;;;;;5066753;28;19916;-54
2023/05/29 11:58:56;;;;;;;;;;;22.30;35.60;;;;;;5084636;28;19992;-54
2023/05/29 12:01:23;;;;;;;;;;;22.40;36.40;;;;;;5088499;28;19912;-54
2023/05/29 12:03:48;;;;;;;;;;;22.50;35.50;;;;;;5086284;28;19930;-54
2023/05/29 12:06:14;;;;;;;;;;;22.60;35.60;;;;;;5072770;28;19912;-53
2023/05/29 12:08:39;;;;;;;;;;;22.70;35.50;;;;;;5091170;28;19986;-54
2023/05/29 12:11:05;;;;;;;;;;;22.70;35.50;;;;;;5087810;28;20288;-55
2023/05/29 12:13:31;;;;;;;;;;;22.50;35.60;;;;;;5071585;28;19928;-54
2023/05/29 12:15:57;;;;;;;;;;;22.60;35.60;;;;;;5075298;28;19959;-53
2023/05/29 12:18:22;;;;;;;;;;;22.70;35.50;;;;;;5092833;28;19934;-54
2023/05/29 12:20:47;;;;;;;;;;;22.80;35.50;;;;;;5076310;28;20408;-54
2023/05/29 12:23:13;;;;;;;;;;;22.80;35.40;;;;;;5091802;28;20368;-53
2023/05/29 12:25:38;;;;;;;;;;;22.70;35.50;;;;;;5094559;28;20229;-53
2023/05/29 12:28:04;;;;;;;;;;;22.60;35.60;;;;;;5095621;28;19915;-53
2023/05/29 12:30:30;;;;;;;;;;;22.50;35.90;;;;;;5082086;28;19909;-53
2023/05/29 12:32:56;;;;;;;;;;;22.50;36.00;;;;;;5075504;28;19916;-54
2023/05/29 12:35:23;;;;;;;;;;;22.60;35.80;;;;;;5090465;28;19919;-53
2023/05/29 12:37:58;;;;;;;;;;;22.60;35.60;;;;;;5081151;28;20002;-53
2023/05/29 12:40:24;;;;;;;;;;;22.70;35.70;;;;;;5090299;28;19919;-53
2023/05/29 12:42:53;;;;;;;;;;;22.60;35.60;;;;;;5092654;28;19957;-53
2023/05/29 12:45:19;;;;;;;;;;;22.70;35.70;;;;;;5085924;28;19919;-53
2023/05/29 12:47:54;;;;;;;;;;;22.70;35.70;;;;;;5091788;28;20300;-53
2023/05/29 12:50:26;;;;;;;;;;;22.70;35.20;;;;;;5074811;28;19912;-53
2023/05/29 12:52:58;;;;;;;;;;;22.90;34.90;;;;;;5091021;28;19970;-53
2023/05/29 12:55:24;;;;;;;;;;;22.90;34.80;;;;;;5086373;28;19908;-52
2023/05/29 12:57:49;;;;;;;;;;;22.90;34.70;;;;;;5090286;28;19920;-54
2023/05/29 13:00:15;;;;;;;;;;;23.00;34.90;;;;;;5070631;28;20461;-54
2023/05/29 13:02:40;;;;;;;;;;;23.10;35.10;;;;;;5093008;28;19923;-54
2023/05/29 13:05:06;;;;;;;;;;;23.00;35.00;;;;;;5086799;28;19912;-54
2023/05/29 13:07:32;;;;;;;;;;;23.00;35.10;;;;;;5090614;28;19916;-54
2023/05/29 13:09:58;;;;;;;;;;;22.90;35.30;;;;;;5092190;28;20361;-54
2023/05/29 13:12:24;;;;;;;;;;;23.00;35.10;;;;;;5093491;28;19912;-54
2023/05/29 13:14:50;;;;;;;;;;;23.10;35.10;;;;;;5089966;28;19942;-54
2023/05/29 13:17:15;;;;;;;;;;;23.10;35.30;;;;;;5067948;28;20371;-55
2023/05/29 13:19:40;;;;;;;;;;;23.10;35.00;;;;;;5091988;28;19912;-54
2023/05/29 13:22:06;;;;;;;;;;;23.00;35.50;;;;;;5094134;28;20312;-54
2023/05/29 13:24:32;;;;;;;;;;;22.90;35.40;;;;;;5084007;28;19952;-54
2023/05/29 13:26:57;;;;;;;;;;;23.00;35.30;;;;;;5085311;28;20971;-54
2023/05/29 13:29:22;;;;;;;;;;;23.10;34.70;;;;;;5087834;28;19916;-54
2023/05/29 13:31:48;;;;;;;;;;;23.20;34.70;;;;;;5068840;28;19936;-54
2023/05/29 13:34:14;;;;;;;;;;;23.20;34.90;;;;;;5087750;28;19916;-54
2023/05/29 13:36:39;;;;;;;;;;;23.10;35.00;;;;;;5090608;28;19920;-54
2023/05/29 13:39:06;;;;;;;;;;;23.10;34.60;;;;;;5100436;28;19912;-54
2023/05/29 13:41:31;;;;;;;;;;;23.20;34.80;;;;;;5089587;28;19951;-54
2023/05/29 13:43:57;;;;;;;;;;;23.10;34.90;;;;;;5092727;28;19967;-53
2023/05/29 13:46:22;;;;;;;;;;;23.20;34.40;;;;;;5089658;28;19943;-53
2023/05/29 13:48:48;;;;;;;;;;;23.30;34.60;;;;;;5092527;28;19916;-55
2023/05/29 13:51:13;;;;;;;;;;;23.30;34.60;;;;;;5056319;28;19920;-55
2023/05/29 13:53:39;;;;;;;;;;;23.30;34.10;;;;;;5073746;28;19912;-55
2023/05/29 13:56:04;;;;;;;;;;;23.30;34.00;;;;;;5089029;28;19912;-55
2023/05/29 13:58:30;;;;;;;;;;;23.30;34.00;;;;;;5082781;28;20269;-54
2023/05/29 14:00:55;;;;;;;;;;;23.20;33.70;;;;;;5087726;28;19921;-54
2023/05/29 14:03:23;;;;;;;;;;;23.30;33.80;;;;;;5062008;28;19927;-54
2023/05/29 14:05:49;;;;;;;;;;;23.40;33.50;;;;;;5092483;28;20010;-55
2023/05/29 14:08:15;;;;;;;;;;;23.50;33.30;;;;;;5092790;28;20348;-55
2023/05/29 14:10:40;;;;;;;;;;;23.60;33.50;;;;;;5090196;28;19912;-55